Metar z połowy godziny Komunikat METAR ze strony awiacja.imgw.pl Metar G30 EPSN METAR EPSN 200930Z 28011KT 9999 FEW030CB BKN070 22/17 Q1010 RMK 215 074 6/2=